createdAt,value
2019-01-11T00:02:27.810Z,100148.55
2019-01-11T00:08:32.365Z,100139.44
2019-01-11T00:14:36.915Z,100124.91
2019-01-11T00:20:41.484Z,100118.28
2019-01-11T00:26:46.044Z,100113.50
2019-01-11T00:32:50.604Z,100107.84
2019-01-11T00:38:55.245Z,100113.22
2019-01-11T00:44:59.803Z,100097.16
2019-01-11T00:51:04.536Z,100097.25
2019-01-11T00:57:09.082Z,100089.00
2019-01-11T01:03:13.705Z,100083.70
2019-01-11T01:09:18.343Z,100079.75
2019-01-11T01:15:22.977Z,100076.28
2019-01-11T01:21:27.535Z,100067.98
2019-01-11T01:27:32.106Z,100061.63
2019-01-11T01:33:36.638Z,100056.56
2019-01-11T01:39:41.263Z,100057.28
2019-01-11T01:45:45.956Z,100044.53
2019-01-11T01:51:51.603Z,100052.45
2019-01-11T01:57:56.157Z,100049.92
2019-01-11T02:04:00.778Z,100047.52
2019-01-11T02:10:09.635Z,100052.45
2019-01-11T02:16:14.201Z,100048.83
2019-01-11T02:22:19.540Z,100042.35
2019-01-11T02:28:24.173Z,100035.13
2019-01-11T02:34:28.727Z,100024.17
2019-01-11T02:40:33.348Z,100015.85
2019-01-11T02:46:37.976Z,100008.83
2019-01-11T02:52:42.851Z,99999.23
2019-01-11T02:58:47.402Z,99995.98
2019-01-11T03:04:51.954Z,99992.48
2019-01-11T03:10:56.507Z,99990.55
2019-01-11T03:17:01.052Z,99981.86
2019-01-11T03:23:05.681Z,99979.05
2019-01-11T03:29:10.231Z,99973.36
2019-01-11T03:35:15.591Z,99969.99
2019-01-11T03:41:20.145Z,99962.76
2019-01-11T03:47:24.764Z,99957.27
2019-01-11T03:53:29.305Z,99962.73
2019-01-11T03:59:33.992Z,99947.59
2019-01-11T04:05:38.643Z,99940.64
2019-01-11T04:11:43.225Z,99932.42
2019-01-11T04:17:49.829Z,99925.29
2019-01-11T04:23:54.390Z,99924.56
2019-01-11T04:29:58.947Z,99921.16
2019-01-11T04:36:03.565Z,99918.38
2019-01-11T04:42:08.117Z,99912.15
2019-01-11T04:48:32.235Z,99908.91
2019-01-11T04:54:36.820Z,99905.92
2019-01-11T05:00:41.359Z,99893.44
2019-01-11T05:06:45.889Z,99888.88
2019-01-11T05:12:50.545Z,99879.63
2019-01-11T05:18:55.107Z,99872.88
2019-01-11T05:24:59.651Z,99859.42
2019-01-11T05:31:04.534Z,99856.59
2019-01-11T05:37:09.074Z,99846.93
2019-01-11T05:43:13.618Z,99838.80
2019-01-11T05:49:18.154Z,99835.23
2019-01-11T05:55:36.466Z,99827.02
2019-01-11T06:01:41.073Z,99820.89
2019-01-11T06:07:45.983Z,99814.72
2019-01-11T06:13:50.517Z,99810.99
2019-01-11T06:19:55.054Z,99814.86
2019-01-11T06:25:59.593Z,99817.32
2019-01-11T06:32:04.201Z,99828.67
2019-01-11T06:38:08.740Z,99836.22
2019-01-11T06:44:13.288Z,99834.50
2019-01-11T06:50:18.265Z,99822.02
2019-01-11T06:56:22.810Z,99828.78
2019-01-11T07:02:27.377Z,99821.82
2019-01-11T07:08:31.922Z,99830.03
2019-01-11T07:14:36.464Z,99820.16
2019-01-11T07:20:42.995Z,99817.16
2019-01-11T07:26:47.277Z,99816.32
2019-01-11T07:32:51.823Z,99810.45
2019-01-11T07:38:56.432Z,99810.25
2019-01-11T07:45:00.972Z,99809.83
2019-01-11T07:51:05.595Z,99815.02
2019-01-11T07:57:10.207Z,99801.98
2019-01-11T08:03:14.753Z,99801.50
2019-01-11T08:09:19.389Z,99812.06
2019-01-11T08:15:23.955Z,99800.58
2019-01-11T08:21:28.562Z,99799.88
2019-01-11T08:27:33.097Z,99794.19
2019-01-11T08:33:37.793Z,99790.92
2019-01-11T08:39:42.343Z,99797.53
2019-01-11T08:45:46.971Z,99799.78
2019-01-11T08:51:51.603Z,99790.60
2019-01-11T08:57:56.303Z,99787.67
2019-01-11T09:04:00.830Z,99788.73
2019-01-11T09:10:22.237Z,99794.62
2019-01-11T09:16:21.792Z,99778.41
2019-01-11T09:22:26.363Z,99787.67
2019-01-11T09:28:30.888Z,99788.11
2019-01-11T09:34:35.442Z,99787.84
2019-01-11T09:40:39.983Z,99792.16
2019-01-11T09:46:44.517Z,99782.05
2019-01-11T09:52:49.075Z,99779.30
2019-01-11T09:58:55.415Z,99774.53
2019-01-11T10:04:59.969Z,99768.81
2019-01-11T10:11:04.792Z,99776.76
2019-01-11T10:17:09.347Z,99763.45
2019-01-11T10:23:13.964Z,99750.92
2019-01-11T10:29:18.528Z,99742.14
2019-01-11T10:35:23.298Z,99745.06
2019-01-11T10:41:27.927Z,99733.63
2019-01-11T10:47:32.545Z,99722.21
2019-01-11T10:53:37.129Z,99715.25
2019-01-11T10:59:41.803Z,99710.00
2019-01-11T11:05:46.339Z,99707.23
2019-01-11T11:11:50.891Z,99699.30
2019-01-11T11:17:55.537Z,99697.25
2019-01-11T11:24:00.092Z,99702.33
2019-01-11T11:30:07.076Z,99684.50
2019-01-11T11:36:11.610Z,99680.75
2019-01-11T11:42:16.968Z,99665.06
2019-01-11T11:48:21.563Z,99655.02
2019-01-11T11:54:26.099Z,99649.03
2019-01-11T12:00:30.712Z,99640.23
2019-01-11T12:06:35.253Z,99640.23
2019-01-11T12:12:39.789Z,99633.09
2019-01-11T12:18:44.353Z,99627.55
2019-01-11T12:24:48.893Z,99621.88
2019-01-11T12:30:53.428Z,99609.19
2019-01-11T12:36:57.957Z,99609.75
2019-01-11T12:43:02.515Z,99599.89
2019-01-11T12:49:07.139Z,99598.09
2019-01-11T12:55:11.739Z,99585.00
2019-01-11T13:01:16.272Z,99575.23
2019-01-11T13:07:20.800Z,99571.64
2019-01-11T13:13:25.357Z,99562.14
2019-01-11T13:19:29.963Z,99557.06
2019-01-11T13:25:34.498Z,99556.82
2019-01-11T13:31:39.062Z,99551.23
2019-01-11T13:37:43.846Z,99546.42
2019-01-11T13:43:48.447Z,99545.83
2019-01-11T13:49:52.990Z,99534.26
2019-01-11T13:55:57.561Z,99527.27
2019-01-11T14:02:02.238Z,99520.48
2019-01-11T14:08:06.849Z,99520.88
2019-01-11T14:14:11.448Z,99514.81
2019-01-11T14:20:16.066Z,99510.23
2019-01-11T14:26:20.727Z,99499.72
2019-01-11T14:32:27.968Z,99491.25
2019-01-11T14:38:32.518Z,99485.11
2019-01-11T14:44:37.965Z,99478.81
2019-01-11T14:50:42.580Z,99485.56
2019-01-11T14:56:47.119Z,99489.38
2019-01-11T15:02:51.856Z,99495.02
2019-01-11T15:08:56.401Z,99485.73
2019-01-11T15:15:00.947Z,99491.08
2019-01-11T15:21:05.553Z,99482.00
2019-01-11T15:27:10.176Z,99478.22
2019-01-11T15:33:14.709Z,99475.28
2019-01-11T15:39:19.285Z,99479.56
2019-01-11T15:45:23.899Z,99474.83
2019-01-11T15:51:28.440Z,99472.27
2019-01-11T15:57:37.546Z,99476.22
2019-01-11T16:03:42.655Z,99483.22
2019-01-11T16:09:56.431Z,99465.69
2019-01-11T16:16:03.770Z,99461.94
2019-01-11T16:22:08.339Z,99465.15
2019-01-11T16:28:12.966Z,99473.00
2019-01-11T16:34:17.520Z,99480.82
2019-01-11T16:40:22.068Z,99479.99
2019-01-11T16:46:26.614Z,99479.66
2019-01-11T16:52:31.174Z,99489.29
2019-01-11T16:58:35.879Z,99480.87
2019-01-11T17:04:40.439Z,99492.53
2019-01-11T17:10:44.985Z,99498.03
2019-01-11T17:16:49.543Z,99487.91
2019-01-11T17:22:54.082Z,99486.78
2019-01-11T17:28:58.633Z,99490.63
2019-01-11T17:35:04.943Z,99493.64
2019-01-11T17:41:09.734Z,99481.88
2019-01-11T17:47:14.289Z,99492.34
2019-01-11T17:53:18.830Z,99505.83
2019-01-11T17:59:23.396Z,99501.83
2019-01-11T18:05:27.941Z,99510.83
2019-01-11T18:11:32.506Z,99513.02
2019-01-11T18:17:37.062Z,99516.33
2019-01-11T18:23:41.629Z,99510.00
2019-01-11T18:29:46.174Z,99512.34
2019-01-11T18:35:50.695Z,99509.40
2019-01-11T18:41:55.255Z,99505.88
2019-01-11T18:47:59.793Z,99516.89
2019-01-11T18:54:04.512Z,99512.06
2019-01-11T19:00:18.642Z,99519.36
2019-01-11T19:06:23.198Z,99522.36
2019-01-11T19:12:27.767Z,99536.67
2019-01-11T19:18:32.357Z,99545.67
2019-01-11T19:24:36.906Z,99545.16
2019-01-11T19:30:41.446Z,99535.39
2019-01-11T19:36:46.003Z,99536.72
2019-01-11T19:42:50.528Z,99544.98
2019-01-11T19:48:55.073Z,99539.20
2019-01-11T19:54:59.690Z,99550.70
2019-01-11T20:01:04.621Z,99552.70
2019-01-11T20:07:09.143Z,99559.84
2019-01-11T20:13:13.818Z,99560.59
2019-01-11T20:19:18.351Z,99556.20
2019-01-11T20:25:24.797Z,99560.83
2019-01-11T20:31:29.428Z,99548.02
2019-01-11T20:37:34.906Z,99546.53
2019-01-11T20:43:39.625Z,99556.02
2019-01-11T20:49:44.205Z,99557.20
2019-01-11T20:55:48.812Z,99560.36
2019-01-11T21:01:53.350Z,99562.64
2019-01-11T21:07:58.028Z,99565.17
2019-01-11T21:14:02.673Z,99553.30
2019-01-11T21:20:14.408Z,99566.95
2019-01-11T21:26:18.985Z,99573.00
2019-01-11T21:32:23.505Z,99568.11
2019-01-11T21:38:28.046Z,99577.30
2019-01-11T21:44:32.588Z,99571.94
2019-01-11T21:50:37.130Z,99571.59
2019-01-11T21:56:41.673Z,99576.80
2019-01-11T22:02:46.299Z,99577.80
2019-01-11T22:08:50.842Z,99579.09
2019-01-11T22:14:55.385Z,99578.80
2019-01-11T22:20:59.905Z,99587.63
2019-01-11T22:27:04.583Z,99581.66
2019-01-11T22:33:09.121Z,99575.59
2019-01-11T22:39:13.653Z,99583.64
2019-01-11T22:45:18.216Z,99579.09
2019-01-11T22:51:22.760Z,99584.14
2019-01-11T22:57:27.302Z,99588.16
2019-01-11T23:03:38.917Z,99582.34
2019-01-11T23:09:44.158Z,99592.48
2019-01-11T23:15:48.932Z,99578.49
2019-01-11T23:21:53.462Z,99571.34
2019-01-11T23:27:58.004Z,99581.64
2019-01-11T23:34:02.543Z,99583.31
2019-01-11T23:40:11.444Z,99582.64
2019-01-11T23:46:16.048Z,99581.98
2019-01-11T23:52:20.650Z,99580.49
2019-01-11T23:58:25.217Z,99579.66
